sensor_id;sensor_type;location;lat;lon;timestamp;pressure;altitude;pressure_sealevel;temperature;humidity
7407;BME280;3745;56.964;24.128;2022-07-19T00:01:51;101661.66;;;16.84;100.00
7407;BME280;3745;56.964;24.128;2022-07-19T00:04:16;101671.03;;;16.85;100.00
7407;BME280;3745;56.964;24.128;2022-07-19T00:06:42;101673.59;;;16.82;100.00
7407;BME280;3745;56.964;24.128;2022-07-19T00:09:07;101638.63;;;16.58;100.00
7407;BME280;3745;56.964;24.128;2022-07-19T00:11:33;101671.88;;;16.77;100.00
7407;BME280;3745;56.964;24.128;2022-07-19T00:13:59;101677.00;;;16.73;100.00
7407;BME280;3745;56.964;24.128;2022-07-19T00:16:24;101671.84;;;16.71;100.00
7407;BME280;3745;56.964;24.128;2022-07-19T00:18:50;101618.94;;;16.43;100.00
7407;BME280;3745;56.964;24.128;2022-07-19T00:21:15;101658.22;;;16.66;100.00
7407;BME280;3745;56.964;24.128;2022-07-19T00:23:41;101671.00;;;16.63;100.00
7407;BME280;3745;56.964;24.128;2022-07-19T00:26:07;101623.97;;;16.22;100.00
7407;BME280;3745;56.964;24.128;2022-07-19T00:28:32;101668.41;;;16.54;100.00
7407;BME280;3745;56.964;24.128;2022-07-19T00:30:58;101615.44;;;16.14;100.00
7407;BME280;3745;56.964;24.128;2022-07-19T00:33:24;101675.16;;;16.49;100.00
7407;BME280;3745;56.964;24.128;2022-07-19T00:35:50;101670.97;;;16.59;100.00
7407;BME280;3745;56.964;24.128;2022-07-19T00:38:15;101652.13;;;16.37;100.00
7407;BME280;3745;56.964;24.128;2022-07-19T00:40:41;101670.03;;;16.43;100.00
7407;BME280;3745;56.964;24.128;2022-07-19T00:43:09;101666.63;;;16.38;100.00
7407;BME280;3745;56.964;24.128;2022-07-19T00:45:35;101655.56;;;16.41;100.00
7407;BME280;3745;56.964;24.128;2022-07-19T00:48:01;101670.03;;;16.46;100.00
7407;BME280;3745;56.964;24.128;2022-07-19T00:50:26;101633.28;;;16.06;100.00
7407;BME280;3745;56.964;24.128;2022-07-19T00:52:55;101647.81;;;16.15;100.00
7407;BME280;3745;56.964;24.128;2022-07-19T00:55:22;101644.38;;;16.10;100.00
7407;BME280;3745;56.964;24.128;2022-07-19T00:57:49;101669.09;;;16.18;100.00
7407;BME280;3745;56.964;24.128;2022-07-19T01:00:16;101654.59;;;16.10;100.00
7407;BME280;3745;56.964;24.128;2022-07-19T01:02:43;101654.59;;;16.08;100.00
7407;BME280;3745;56.964;24.128;2022-07-19T01:05:10;101647.75;;;16.06;100.00
7407;BME280;3745;56.964;24.128;2022-07-19T01:07:39;101669.09;;;16.14;100.00
7407;BME280;3745;56.964;24.128;2022-07-19T01:10:07;101656.31;;;16.11;100.00
7407;BME280;3745;56.964;24.128;2022-07-19T01:12:33;101621.25;;;15.80;100.00
7407;BME280;3745;56.964;24.128;2022-07-19T01:15:00;101668.16;;;16.06;100.00
7407;BME280;3745;56.964;24.128;2022-07-19T01:17:26;101525.63;;;15.22;100.00
7407;BME280;3745;56.964;24.128;2022-07-19T01:19:52;101660.50;;;16.06;100.00
7407;BME280;3745;56.964;24.128;2022-07-19T01:22:18;101657.94;;;16.00;100.00
7407;BME280;3745;56.964;24.128;2022-07-19T01:24:44;101663.03;;;16.00;100.00
7407;BME280;3745;56.964;24.128;2022-07-19T01:27:10;101550.31;;;15.27;100.00
7407;BME280;3745;56.964;24.128;2022-07-19T01:29:36;101660.47;;;16.00;100.00
7407;BME280;3745;56.964;24.128;2022-07-19T01:32:03;101611.81;;;15.69;100.00
7407;BME280;3745;56.964;24.128;2022-07-19T01:34:29;101642.53;;;15.82;100.00
7407;BME280;3745;56.964;24.128;2022-07-19T01:36:54;101662.16;;;15.87;100.00
7407;BME280;3745;56.964;24.128;2022-07-19T01:39:20;101664.66;;;15.83;100.00
7407;BME280;3745;56.964;24.128;2022-07-19T01:41:45;101643.28;;;15.64;100.00
7407;BME280;3745;56.964;24.128;2022-07-19T01:44:11;101598.75;;;15.19;100.00
7407;BME280;3745;56.964;24.128;2022-07-19T01:46:37;101630.34;;;15.44;100.00
7407;BME280;3745;56.964;24.128;2022-07-19T01:49:03;101679.91;;;15.70;100.00
7407;BME280;3745;56.964;24.128;2022-07-19T01:51:28;101672.31;;;15.80;100.00
7407;BME280;3745;56.964;24.128;2022-07-19T01:53:54;101685.00;;;15.70;100.00
7407;BME280;3745;56.964;24.128;2022-07-19T01:56:20;101669.38;;;15.31;100.00
7407;BME280;3745;56.964;24.128;2022-07-19T01:58:45;101694.91;;;15.34;100.00
7407;BME280;3745;56.964;24.128;2022-07-19T02:01:11;101701.69;;;15.32;100.00
7407;BME280;3745;56.964;24.128;2022-07-19T02:03:37;101693.13;;;15.24;100.00
7407;BME280;3745;56.964;24.128;2022-07-19T02:06:02;101706.69;;;15.23;100.00
7407;BME280;3745;56.964;24.128;2022-07-19T02:08:28;101658.69;;;14.80;100.00
7407;BME280;3745;56.964;24.128;2022-07-19T02:10:54;101675.03;;;14.97;100.00
7407;BME280;3745;56.964;24.128;2022-07-19T02:13:20;101711.72;;;15.14;100.00
7407;BME280;3745;56.964;24.128;2022-07-19T02:15:46;101656.97;;;14.76;100.00
7407;BME280;3745;56.964;24.128;2022-07-19T02:18:12;101711.66;;;15.08;100.00
7407;BME280;3745;56.964;24.128;2022-07-19T02:20:38;101704.09;;;15.15;100.00
7407;BME280;3745;56.964;24.128;2022-07-19T02:23:04;101698.16;;;15.18;100.00
7407;BME280;3745;56.964;24.128;2022-07-19T02:25:29;101676.03;;;15.17;100.00
7407;BME280;3745;56.964;24.128;2022-07-19T02:27:55;101698.16;;;15.18;100.00
7407;BME280;3745;56.964;24.128;2022-07-19T02:30:20;101633.25;;;14.83;100.00
7407;BME280;3745;56.964;24.128;2022-07-19T02:32:46;101694.03;;;15.32;100.00
7407;BME280;3745;56.964;24.128;2022-07-19T02:35:12;101683.84;;;15.34;100.00
7407;BME280;3745;56.964;24.128;2022-07-19T02:37:39;101686.41;;;15.38;100.00
7407;BME280;3745;56.964;24.128;2022-07-19T02:40:06;101677.97;;;15.42;100.00
7407;BME280;3745;56.964;24.128;2022-07-19T02:42:32;101666.03;;;15.41;100.00
7407;BME280;3745;56.964;24.128;2022-07-19T02:44:57;101682.44;;;15.70;100.00
7407;BME280;3745;56.964;24.128;2022-07-19T02:47:23;101679.09;;;15.79;100.00
7407;BME280;3745;56.964;24.128;2022-07-19T02:49:49;101679.16;;;15.87;100.00
7407;BME280;3745;56.964;24.128;2022-07-19T02:52:14;101687.59;;;15.78;100.00
7407;BME280;3745;56.964;24.128;2022-07-19T02:54:40;101647.47;;;15.57;100.00
7407;BME280;3745;56.964;24.128;2022-07-19T02:57:06;101673.19;;;15.88;100.00
7407;BME280;3745;56.964;24.128;2022-07-19T02:59:31;101681.75;;;15.93;100.00
7407;BME280;3745;56.964;24.128;2022-07-19T03:01:57;101674.94;;;15.95;100.00
7407;BME280;3745;56.964;24.128;2022-07-19T03:04:22;101667.28;;;15.93;100.00
7407;BME280;3745;56.964;24.128;2022-07-19T03:06:48;101664.75;;;16.01;100.00
7407;BME280;3745;56.964;24.128;2022-07-19T03:09:14;101644.22;;;15.80;100.00
7407;BME280;3745;56.964;24.128;2022-07-19T03:11:40;101642.53;;;15.88;100.00
7407;BME280;3745;56.964;24.128;2022-07-19T03:14:05;101665.66;;;16.07;100.00
7407;BME280;3745;56.964;24.128;2022-07-19T03:16:31;101668.16;;;16.03;100.00
7407;BME280;3745;56.964;24.128;2022-07-19T03:18:57;101662.22;;;16.02;100.00
7407;BME280;3745;56.964;24.128;2022-07-19T03:21:22;101633.25;;;15.99;100.00
7407;BME280;3745;56.964;24.128;2022-07-19T03:23:49;101664.88;;;16.31;100.00
7407;BME280;3745;56.964;24.128;2022-07-19T03:26:15;101659.78;;;16.33;100.00
7407;BME280;3745;56.964;24.128;2022-07-19T03:28:41;101656.34;;;16.23;100.00
7407;BME280;3745;56.964;24.128;2022-07-19T03:31:07;101628.19;;;16.09;100.00
7407;BME280;3745;56.964;24.128;2022-07-19T03:33:32;101661.50;;;16.35;100.00
7407;BME280;3745;56.964;24.128;2022-07-19T03:35:58;101652.97;;;16.30;100.00
7407;BME280;3745;56.964;24.128;2022-07-19T03:38:24;101660.66;;;16.38;100.00
7407;BME280;3745;56.964;24.128;2022-07-19T03:40:50;101641.03;;;16.29;100.00
7407;BME280;3745;56.964;24.128;2022-07-19T03:43:16;101651.28;;;16.40;100.00
7407;BME280;3745;56.964;24.128;2022-07-19T03:45:44;101647.97;;;16.57;100.00
7407;BME280;3745;56.964;24.128;2022-07-19T03:48:10;101647.13;;;16.64;100.00
7407;BME280;3745;56.964;24.128;2022-07-19T03:50:36;101546.47;;;16.15;100.00
7407;BME280;3745;56.964;24.128;2022-07-19T03:53:01;101646.28;;;16.65;100.00
7407;BME280;3745;56.964;24.128;2022-07-19T03:55:27;101570.28;;;16.07;100.00
7407;BME280;3745;56.964;24.128;2022-07-19T03:57:53;101652.22;;;16.55;100.00
7407;BME280;3745;56.964;24.128;2022-07-19T04:00:18;101603.56;;;16.28;100.00
7407;BME280;3745;56.964;24.128;2022-07-19T04:02:44;101630.88;;;16.44;100.00
7407;BME280;3745;56.964;24.128;2022-07-19T04:05:09;101643.72;;;16.55;100.00
7407;BME280;3745;56.964;24.128;2022-07-19T04:07:35;101566.03;;;16.09;100.00
7407;BME280;3745;56.964;24.128;2022-07-19T04:10:01;101651.41;;;16.65;100.00
7407;BME280;3745;56.964;24.128;2022-07-19T04:12:27;101603.63;;;16.52;100.00
7407;BME280;3745;56.964;24.128;2022-07-19T04:14:52;101643.75;;;16.90;100.00
7407;BME280;3745;56.964;24.128;2022-07-19T04:17:18;101641.22;;;17.02;100.00
7407;BME280;3745;56.964;24.128;2022-07-19T04:19:44;101640.38;;;16.91;100.00
7407;BME280;3745;56.964;24.128;2022-07-19T04:22:09;101616.47;;;16.84;100.00
7407;BME280;3745;56.964;24.128;2022-07-19T04:24:35;101634.41;;;16.95;100.00
7407;BME280;3745;56.964;24.128;2022-07-19T04:27:01;101646.31;;;16.90;100.00
7407;BME280;3745;56.964;24.128;2022-07-19T04:29:26;101640.34;;;16.98;100.00
7407;BME280;3745;56.964;24.128;2022-07-19T04:31:52;101630.97;;;16.96;100.00
7407;BME280;3745;56.964;24.128;2022-07-19T04:34:17;101625.88;;;17.02;100.00
7407;BME280;3745;56.964;24.128;2022-07-19T04:36:43;101629.28;;;17.07;100.00
7407;BME280;3745;56.964;24.128;2022-07-19T04:39:09;101624.19;;;17.13;100.00
7407;BME280;3745;56.964;24.128;2022-07-19T04:41:34;101587.50;;;17.02;100.00
7407;BME280;3745;56.964;24.128;2022-07-19T04:44:00;101578.16;;;16.98;100.00
7407;BME280;3745;56.964;24.128;2022-07-19T04:46:26;101579.81;;;17.05;100.00
7407;BME280;3745;56.964;24.128;2022-07-19T04:48:52;101582.38;;;17.17;100.00
7407;BME280;3745;56.964;24.128;2022-07-19T04:51:17;101601.09;;;17.43;100.00
7407;BME280;3745;56.964;24.128;2022-07-19T04:53:43;101602.78;;;17.49;100.00
7407;BME280;3745;56.964;24.128;2022-07-19T04:56:08;101599.41;;;17.59;100.00
7407;BME280;3745;56.964;24.128;2022-07-19T04:58:34;101595.13;;;17.53;100.00
7407;BME280;3745;56.964;24.128;2022-07-19T05:01:00;101596.84;;;17.39;100.00
7407;BME280;3745;56.964;24.128;2022-07-19T05:03:25;101599.41;;;17.27;100.00
7407;BME280;3745;56.964;24.128;2022-07-19T05:05:51;101613.91;;;17.40;100.00
7407;BME280;3745;56.964;24.128;2022-07-19T05:08:17;101605.38;;;17.50;100.00
7407;BME280;3745;56.964;24.128;2022-07-19T05:10:43;101551.63;;;17.37;100.00
7407;BME280;3745;56.964;24.128;2022-07-19T05:13:09;101593.41;;;17.67;100.00
7407;BME280;3745;56.964;24.128;2022-07-19T05:15:34;101584.88;;;17.68;100.00
7407;BME280;3745;56.964;24.128;2022-07-19T05:18:00;101586.56;;;17.66;100.00
7407;BME280;3745;56.964;24.128;2022-07-19T05:20:26;101607.84;;;17.82;100.00
7407;BME280;3745;56.964;24.128;2022-07-19T05:22:51;101603.63;;;17.73;100.00
7407;BME280;3745;56.964;24.128;2022-07-19T05:25:17;101492.84;;;17.08;100.00
7407;BME280;3745;56.964;24.128;2022-07-19T05:27:43;101565.22;;;17.69;100.00
7407;BME280;3745;56.964;24.128;2022-07-19T05:30:09;101589.91;;;17.93;100.00
7407;BME280;3745;56.964;24.128;2022-07-19T05:32:35;101600.09;;;18.00;100.00
7407;BME280;3745;56.964;24.128;2022-07-19T05:35:01;101599.25;;;17.98;100.00
7407;BME280;3745;56.964;24.128;2022-07-19T05:37:26;101603.56;;;17.88;100.00
7407;BME280;3745;56.964;24.128;2022-07-19T05:39:52;101586.50;;;17.81;100.00
7407;BME280;3745;56.964;24.128;2022-07-19T05:42:17;101589.91;;;17.90;100.00
7407;BME280;3745;56.964;24.128;2022-07-19T05:44:43;101593.25;;;18.04;100.00
7407;BME280;3745;56.964;24.128;2022-07-19T05:47:09;101589.81;;;18.08;100.00
7407;BME280;3745;56.964;24.128;2022-07-19T05:49:34;101587.31;;;17.97;100.00
7407;BME280;3745;56.964;24.128;2022-07-19T05:52:00;101589.88;;;17.99;100.00
7407;BME280;3745;56.964;24.128;2022-07-19T05:54:26;101593.28;;;17.95;100.00
7407;BME280;3745;56.964;24.128;2022-07-19T05:56:51;101474.00;;;17.36;100.00
7407;BME280;3745;56.964;24.128;2022-07-19T05:59:18;101583.84;;;18.06;100.00
7407;BME280;3745;56.964;24.128;2022-07-19T06:01:47;101509.72;;;17.72;100.00
7407;BME280;3745;56.964;24.128;2022-07-19T06:04:13;101579.47;;;18.29;100.00
7407;BME280;3745;56.964;24.128;2022-07-19T06:06:39;101582.84;;;18.34;100.00
7407;BME280;3745;56.964;24.128;2022-07-19T06:09:05;101581.13;;;18.39;100.00
7407;BME280;3745;56.964;24.128;2022-07-19T06:11:30;101577.66;;;18.49;100.00
7407;BME280;3745;56.964;24.128;2022-07-19T06:13:56;101583.50;;;18.69;100.00
7407;BME280;3745;56.964;24.128;2022-07-19T06:16:23;101541.75;;;18.49;100.00
7407;BME280;3745;56.964;24.128;2022-07-19T06:18:48;101556.16;;;18.70;100.00
7407;BME280;3745;56.964;24.128;2022-07-19T06:21:17;101563.59;;;18.95;100.00
7407;BME280;3745;56.964;24.128;2022-07-19T06:23:45;101536.28;;;18.94;100.00
7407;BME280;3745;56.964;24.128;2022-07-19T06:26:11;101559.00;;;19.31;100.00
7407;BME280;3745;56.964;24.128;2022-07-19T06:28:38;101568.25;;;19.50;100.00
7407;BME280;3745;56.964;24.128;2022-07-19T06:31:04;101570.84;;;19.47;100.00
7407;BME280;3745;56.964;24.128;2022-07-19T06:33:30;101571.75;;;19.43;100.00
7407;BME280;3745;56.964;24.128;2022-07-19T06:35:56;101577.78;;;19.40;100.00
7407;BME280;3745;56.964;24.128;2022-07-19T06:38:21;101571.50;;;19.64;100.00
7407;BME280;3745;56.964;24.128;2022-07-19T06:40:47;101489.69;;;19.31;100.00
7407;BME280;3745;56.964;24.128;2022-07-19T06:43:12;101562.72;;;19.83;100.00
7407;BME280;3745;56.964;24.128;2022-07-19T06:45:38;101572.91;;;19.89;100.00
7407;BME280;3745;56.964;24.128;2022-07-19T06:48:04;101516.72;;;19.65;100.00
7407;BME280;3745;56.964;24.128;2022-07-19T06:50:30;101576.34;;;19.88;100.00
7407;BME280;3745;56.964;24.128;2022-07-19T06:52:56;101573.03;;;19.80;100.00
7407;BME280;3745;56.964;24.128;2022-07-19T06:55:22;101545.91;;;19.58;100.00
7407;BME280;3745;56.964;24.128;2022-07-19T06:57:48;101569.53;;;19.84;100.00
7407;BME280;3745;56.964;24.128;2022-07-19T07:00:14;101567.56;;;20.05;100.00
7407;BME280;3745;56.964;24.128;2022-07-19T07:02:40;101576.72;;;20.27;100.00
7407;BME280;3745;56.964;24.128;2022-07-19T07:05:07;101567.84;;;20.47;100.00
7407;BME280;3745;56.964;24.128;2022-07-19T07:07:34;101561.94;;;20.41;100.00
7407;BME280;3745;56.964;24.128;2022-07-19T07:10:00;101572.13;;;20.47;100.00
7407;BME280;3745;56.964;24.128;2022-07-19T07:12:27;101576.28;;;20.55;100.00
7407;BME280;3745;56.964;24.128;2022-07-19T07:14:53;101499.09;;;20.00;100.00
7407;BME280;3745;56.964;24.128;2022-07-19T07:17:19;101586.81;;;20.40;100.00
7407;BME280;3745;56.964;24.128;2022-07-19T07:19:44;101572.13;;;20.47;100.00
7407;BME280;3745;56.964;24.128;2022-07-19T07:22:10;101540.69;;;20.28;100.00
7407;BME280;3745;56.964;24.128;2022-07-19T07:24:36;101470.91;;;19.94;100.00
7407;BME280;3745;56.964;24.128;2022-07-19T07:27:01;101539.56;;;20.46;100.00
7407;BME280;3745;56.964;24.128;2022-07-19T07:29:27;101560.09;;;20.49;100.00
7407;BME280;3745;56.964;24.128;2022-07-19T07:31:53;101554.84;;;20.55;100.00
7407;BME280;3745;56.964;24.128;2022-07-19T07:34:18;101576.56;;;20.92;100.00
7407;BME280;3745;56.964;24.128;2022-07-19T07:36:44;101470.19;;;20.43;100.00
7407;BME280;3745;56.964;24.128;2022-07-19T07:39:11;101561.00;;;20.98;100.00
7407;BME280;3745;56.964;24.128;2022-07-19T07:41:36;101546.81;;;20.76;100.00
7407;BME280;3745;56.964;24.128;2022-07-19T07:44:03;101564.41;;;21.00;100.00
7407;BME280;3745;56.964;24.128;2022-07-19T07:46:28;101561.09;;;20.92;100.00
7407;BME280;3745;56.964;24.128;2022-07-19T07:48:54;101561.09;;;20.92;100.00
7407;BME280;3745;56.964;24.128;2022-07-19T07:51:20;101532.75;;;20.95;100.00
7407;BME280;3745;56.964;24.128;2022-07-19T07:53:45;101548.91;;;21.03;100.00
7407;BME280;3745;56.964;24.128;2022-07-19T07:56:11;101464.22;;;20.41;100.00
7407;BME280;3745;56.964;24.128;2022-07-19T07:58:36;101547.25;;;20.99;100.00
7407;BME280;3745;56.964;24.128;2022-07-19T08:01:03;101552.22;;;21.12;100.00
7407;BME280;3745;56.964;24.128;2022-07-19T08:03:28;101480.41;;;20.96;100.00
7407;BME280;3745;56.964;24.128;2022-07-19T08:05:54;101549.97;;;21.41;100.00
7407;BME280;3745;56.964;24.128;2022-07-19T08:08:23;101483.72;;;21.01;100.00
7407;BME280;3745;56.964;24.128;2022-07-19T08:10:55;101358.59;;;20.51;100.00
7407;BME280;3745;56.964;24.128;2022-07-19T08:13:22;101429.84;;;20.94;100.00
7407;BME280;3745;56.964;24.128;2022-07-19T08:15:48;101558.97;;;21.63;100.00
7407;BME280;3745;56.964;24.128;2022-07-19T08:18:14;101526.00;;;21.36;100.00
7407;BME280;3745;56.964;24.128;2022-07-19T08:20:40;101457.97;;;21.01;100.00
7407;BME280;3745;56.964;24.128;2022-07-19T08:23:06;101555.56;;;21.61;100.00
7407;BME280;3745;56.964;24.128;2022-07-19T08:25:32;101439.09;;;21.02;100.00
7407;BME280;3745;56.964;24.128;2022-07-19T08:28:00;101450.72;;;21.25;100.00
7407;BME280;3745;56.964;24.128;2022-07-19T08:30:26;101553.50;;;21.78;100.00
7407;BME280;3745;56.964;24.128;2022-07-19T08:32:52;101552.47;;;21.88;100.00
7407;BME280;3745;56.964;24.128;2022-07-19T08:35:18;101409.31;;;20.89;100.00
7407;BME280;3745;56.964;24.128;2022-07-19T08:37:43;101527.97;;;21.66;100.00
7407;BME280;3745;56.964;24.128;2022-07-19T08:40:10;101523.53;;;21.74;100.00
7407;BME280;3745;56.964;24.128;2022-07-19T08:42:36;101504.66;;;21.72;100.00
7407;BME280;3745;56.964;24.128;2022-07-19T08:45:05;101552.34;;;22.31;100.00
7407;BME280;3745;56.964;24.128;2022-07-19T08:47:37;101543.66;;;22.72;100.00
7407;BME280;3745;56.964;24.128;2022-07-19T08:50:07;101485.53;;;22.56;100.00
7407;BME280;3745;56.964;24.128;2022-07-19T08:52:34;101461.16;;;22.69;100.00
7407;BME280;3745;56.964;24.128;2022-07-19T08:55:02;101491.66;;;22.87;100.00
7407;BME280;3745;56.964;24.128;2022-07-19T08:57:28;101526.63;;;22.99;100.00
7407;BME280;3745;56.964;24.128;2022-07-19T09:00:12;101527.47;;;22.99;100.00
7407;BME280;3745;56.964;24.128;2022-07-19T09:02:39;101413.84;;;22.35;100.00
7407;BME280;3745;56.964;24.128;2022-07-19T09:05:06;101505.94;;;23.00;100.00
7407;BME280;3745;56.964;24.128;2022-07-19T09:07:38;101452.88;;;22.55;100.00
7407;BME280;3745;56.964;24.128;2022-07-19T09:10:21;101522.06;;;23.08;100.00
7407;BME280;3745;56.964;24.128;2022-07-19T09:15:51;101516.22;;;23.33;100.00
7407;BME280;3745;56.964;24.128;2022-07-19T09:20:54;101448.22;;;23.01;100.00
7407;BME280;3745;56.964;24.128;2022-07-19T09:23:21;101518.56;;;23.43;100.00
7407;BME280;3745;56.964;24.128;2022-07-19T09:25:52;101521.84;;;22.84;100.00
7407;BME280;3745;56.964;24.128;2022-07-19T09:28:19;101488.72;;;22.32;100.00
7407;BME280;3745;56.964;24.128;2022-07-19T09:30:49;101525.50;;;22.40;100.00
7407;BME280;3745;56.964;24.128;2022-07-19T09:33:18;101518.81;;;22.33;100.00
7407;BME280;3745;56.964;24.128;2022-07-19T09:36:16;101498.53;;;22.18;100.00
7407;BME280;3745;56.964;24.128;2022-07-19T09:38:42;101515.88;;;22.09;100.00
7407;BME280;3745;56.964;24.128;2022-07-19T09:41:16;101521.16;;;22.42;100.00
7407;BME280;3745;56.964;24.128;2022-07-19T09:44:02;101514.56;;;22.67;100.00
7407;BME280;3745;56.964;24.128;2022-07-19T09:46:35;101404.44;;;22.32;100.00
7407;BME280;3745;56.964;24.128;2022-07-19T09:51:33;101431.13;;;23.28;100.00
7407;BME280;3745;56.964;24.128;2022-07-19T09:54:02;101389.81;;;22.97;100.00
7407;BME280;3745;56.964;24.128;2022-07-19T09:56:29;101499.34;;;23.52;100.00
7407;BME280;3745;56.964;24.128;2022-07-19T09:58:56;101422.38;;;23.01;100.00
7407;BME280;3745;56.964;24.128;2022-07-19T10:01:23;101470.31;;;23.44;100.00
7407;BME280;3745;56.964;24.128;2022-07-19T10:03:51;101497.56;;;23.83;100.00
7407;BME280;3745;56.964;24.128;2022-07-19T10:06:19;101487.69;;;23.68;100.00
7407;BME280;3745;56.964;24.128;2022-07-19T10:08:46;101495.19;;;24.03;100.00
7407;BME280;3745;56.964;24.128;2022-07-19T10:11:11;101420.75;;;23.59;100.00
7407;BME280;3745;56.964;24.128;2022-07-19T10:13:38;101418.16;;;23.59;100.00
7407;BME280;3745;56.964;24.128;2022-07-19T10:16:07;101490.78;;;23.79;100.00
7407;BME280;3745;56.964;24.128;2022-07-19T10:18:56;101446.50;;;23.62;100.00
7407;BME280;3745;56.964;24.128;2022-07-19T10:21:26;101390.34;;;23.38;100.00
7407;BME280;3745;56.964;24.128;2022-07-19T10:23:52;101484.66;;;23.82;100.00
7407;BME280;3745;56.964;24.128;2022-07-19T10:26:38;101466.53;;;23.83;100.00
7407;BME280;3745;56.964;24.128;2022-07-19T10:29:12;101473.66;;;23.75;100.00
7407;BME280;3745;56.964;24.128;2022-07-19T10:31:40;101453.78;;;23.48;100.00
7407;BME280;3745;56.964;24.128;2022-07-19T10:34:08;101466.16;;;23.37;100.00
7407;BME280;3745;56.964;24.128;2022-07-19T10:36:45;101406.97;;;22.98;100.00
7407;BME280;3745;56.964;24.128;2022-07-19T10:42:21;101469.69;;;22.71;100.00
7407;BME280;3745;56.964;24.128;2022-07-19T10:52:39;101407.38;;;22.19;100.00
7407;BME280;3745;56.964;24.128;2022-07-19T10:57:52;101494.38;;;22.46;100.00
7407;BME280;3745;56.964;24.128;2022-07-19T11:00:22;101443.91;;;22.00;100.00
7407;BME280;3745;56.964;24.128;2022-07-19T11:02:49;101430.88;;;21.68;100.00
7407;BME280;3745;56.964;24.128;2022-07-19T11:05:33;101341.78;;;21.21;100.00
7407;BME280;3745;56.964;24.128;2022-07-19T11:07:59;101373.84;;;21.45;100.00
7407;BME280;3745;56.964;24.128;2022-07-19T11:10:29;101510.22;;;22.31;100.00
7407;BME280;3745;56.964;24.128;2022-07-19T11:12:56;101396.50;;;21.69;100.00
7407;BME280;3745;56.964;24.128;2022-07-19T11:15:22;101386.34;;;22.00;100.00
7407;BME280;3745;56.964;24.128;2022-07-19T11:20:26;101486.88;;;23.04;100.00
7407;BME280;3745;56.964;24.128;2022-07-19T11:22:53;101407.75;;;22.71;100.00
7407;BME280;3745;56.964;24.128;2022-07-19T11:25:37;101349.81;;;22.49;100.00
7407;BME280;3745;56.964;24.128;2022-07-19T11:28:05;101444.16;;;23.23;100.00
7407;BME280;3745;56.964;24.128;2022-07-19T11:30:32;101481.50;;;23.72;100.00
7407;BME280;3745;56.964;24.128;2022-07-19T11:33:03;101387.19;;;23.57;100.00
7407;BME280;3745;56.964;24.128;2022-07-19T11:35:29;101426.38;;;23.99;100.00
7407;BME280;3745;56.964;24.128;2022-07-19T11:37:58;101474.94;;;24.44;100.00
7407;BME280;3745;56.964;24.128;2022-07-19T11:40:32;101388.97;;;23.83;100.00
7407;BME280;3745;56.964;24.128;2022-07-19T11:42:58;101390.72;;;23.81;100.00
7407;BME280;3745;56.964;24.128;2022-07-19T11:45:26;101420.47;;;23.68;100.00
7407;BME280;3745;56.964;24.128;2022-07-19T11:47:55;101403.16;;;23.42;100.00
7407;BME280;3745;56.964;24.128;2022-07-19T11:50:23;101386.38;;;23.26;100.00
7407;BME280;3745;56.964;24.128;2022-07-19T11:52:52;101414.94;;;23.21;100.00
7407;BME280;3745;56.964;24.128;2022-07-19T11:55:23;101486.44;;;23.52;100.00
7407;BME280;3745;56.964;24.128;2022-07-19T11:57:50;101476.19;;;23.49;100.00
7407;BME280;3745;56.964;24.128;2022-07-19T12:00:17;101377.69;;;22.99;100.00
7407;BME280;3745;56.964;24.128;2022-07-19T12:03:00;101391.31;;;23.04;100.00
7407;BME280;3745;56.964;24.128;2022-07-19T12:05:30;101473.63;;;23.77;100.00
7407;BME280;3745;56.964;24.128;2022-07-19T12:08:01;101458.81;;;23.82;100.00
7407;BME280;3745;56.964;24.128;2022-07-19T12:13:14;101472.63;;;24.08;100.00
7407;BME280;3745;56.964;24.128;2022-07-19T12:18:09;101476.19;;;24.04;100.00
7407;BME280;3745;56.964;24.128;2022-07-19T12:20:35;101384.19;;;23.71;100.00
7407;BME280;3745;56.964;24.128;2022-07-19T12:23:15;101472.72;;;24.33;100.00
7407;BME280;3745;56.964;24.128;2022-07-19T12:25:41;101472.22;;;24.48;100.00
7407;BME280;3745;56.964;24.128;2022-07-19T12:28:07;101339.22;;;23.75;100.00
7407;BME280;3745;56.964;24.128;2022-07-19T12:30:33;101462.28;;;24.36;100.00
7407;BME280;3745;56.964;24.128;2022-07-19T12:33:06;101377.31;;;23.70;100.00
7407;BME280;3745;56.964;24.128;2022-07-19T12:35:47;101465.84;;;24.04;100.00
7407;BME280;3745;56.964;24.128;2022-07-19T12:38:14;101473.22;;;23.90;100.00
7407;BME280;3745;56.964;24.128;2022-07-19T12:40:43;101465.78;;;23.80;100.00
7407;BME280;3745;56.964;24.128;2022-07-19T12:43:10;101470.47;;;23.67;100.00
7407;BME280;3745;56.964;24.128;2022-07-19T12:45:41;101473.84;;;23.69;100.00
7407;BME280;3745;56.964;24.128;2022-07-19T12:48:13;101457.72;;;23.61;100.00
7407;BME280;3745;56.964;24.128;2022-07-19T12:50:48;101478.59;;;23.55;100.00
7407;BME280;3745;56.964;24.128;2022-07-19T12:53:15;101474.13;;;23.60;100.00
7407;BME280;3745;56.964;24.128;2022-07-19T12:55:43;101468.69;;;23.40;100.00
7407;BME280;3745;56.964;24.128;2022-07-19T12:58:10;101478.53;;;23.56;100.00
7407;BME280;3745;56.964;24.128;2022-07-19T13:00:37;101409.69;;;23.25;100.00
7407;BME280;3745;56.964;24.128;2022-07-19T13:03:05;101470.75;;;23.58;100.00
7407;BME280;3745;56.964;24.128;2022-07-19T13:05:31;101474.19;;;23.57;100.00
7407;BME280;3745;56.964;24.128;2022-07-19T13:07:57;101473.13;;;23.64;100.00
7407;BME280;3745;56.964;24.128;2022-07-19T13:10:24;101322.53;;;22.73;100.00
7407;BME280;3745;56.964;24.128;2022-07-19T13:12:50;101431.47;;;23.47;100.00
7407;BME280;3745;56.964;24.128;2022-07-19T13:15:16;101435.00;;;23.43;100.00
7407;BME280;3745;56.964;24.128;2022-07-19T13:17:42;101472.00;;;23.72;100.00
7407;BME280;3745;56.964;24.128;2022-07-19T13:20:08;101472.34;;;23.62;100.00